sensor_id;sensor_type;location;lat;lon;timestamp;pressure;altitude;pressure_sealevel;temperature;humidity
2841;BME280;53423;49.224;12.074;2023-02-04T00:01:41;98496.13;;;6.09;69.64
2841;BME280;53423;49.224;12.074;2023-02-04T00:04:11;98499.88;;;6.05;69.57
2841;BME280;53423;49.224;12.074;2023-02-04T00:06:39;98494.72;;;6.16;68.85
2841;BME280;53423;49.224;12.074;2023-02-04T00:09:07;98498.59;;;6.11;69.30
2841;BME280;53423;49.224;12.074;2023-02-04T00:11:36;98493.63;;;6.08;69.75
2841;BME280;53423;49.224;12.074;2023-02-04T00:14:04;98496.09;;;5.98;69.67
2841;BME280;53423;49.224;12.074;2023-02-04T00:16:33;98503.34;;;6.17;68.64
2841;BME280;53423;49.224;12.074;2023-02-04T00:19:00;98500.00;;;6.15;67.96
2841;BME280;53423;49.224;12.074;2023-02-04T00:21:28;98500.63;;;6.41;68.11
2841;BME280;53423;49.224;12.074;2023-02-04T00:23:56;98510.44;;;6.59;67.20
2841;BME280;53423;49.224;12.074;2023-02-04T00:26:24;98512.00;;;6.40;67.61
2841;BME280;53423;49.224;12.074;2023-02-04T00:28:54;98518.16;;;6.50;67.54
2841;BME280;53423;49.224;12.074;2023-02-04T00:31:21;98514.25;;;6.44;67.91
2841;BME280;53423;49.224;12.074;2023-02-04T00:33:50;98512.44;;;6.33;66.26
2841;BME280;53423;49.224;12.074;2023-02-04T00:36:18;98522.88;;;6.22;67.05
2841;BME280;53423;49.224;12.074;2023-02-04T00:38:46;98538.47;;;6.33;65.25
2841;BME280;53423;49.224;12.074;2023-02-04T00:41:13;98536.00;;;6.21;66.00
2841;BME280;53423;49.224;12.074;2023-02-04T00:43:41;98545.34;;;6.23;65.41
2841;BME280;53423;49.224;12.074;2023-02-04T00:46:11;98549.25;;;6.29;64.94
2841;BME280;53423;49.224;12.074;2023-02-04T00:48:39;98548.41;;;6.28;65.27
2841;BME280;53423;49.224;12.074;2023-02-04T00:51:07;98561.19;;;6.09;65.89
2841;BME280;53423;49.224;12.074;2023-02-04T00:53:35;98559.03;;;6.03;65.56
2841;BME280;53423;49.224;12.074;2023-02-04T00:56:03;98569.47;;;6.25;65.04
2841;BME280;53423;49.224;12.074;2023-02-04T00:58:31;98573.53;;;6.41;64.14
2841;BME280;53423;49.224;12.074;2023-02-04T01:00:58;98574.75;;;6.02;63.83
2841;BME280;53423;49.224;12.074;2023-02-04T01:03:28;98575.47;;;5.80;64.83
2841;BME280;53423;49.224;12.074;2023-02-04T01:05:56;98576.88;;;5.73;65.71
2841;BME280;53423;49.224;12.074;2023-02-04T01:08:24;98567.06;;;5.77;64.75
2841;BME280;53423;49.224;12.074;2023-02-04T01:10:51;98587.72;;;5.67;64.18
2841;BME280;53423;49.224;12.074;2023-02-04T01:13:19;98590.81;;;5.72;64.14
2841;BME280;53423;49.224;12.074;2023-02-04T01:15:47;98590.56;;;5.64;63.04
2841;BME280;53423;49.224;12.074;2023-02-04T01:18:15;98585.16;;;5.78;62.76
2841;BME280;53423;49.224;12.074;2023-02-04T01:20:44;98588.53;;;5.91;62.34
2841;BME280;53423;49.224;12.074;2023-02-04T01:23:12;98579.53;;;6.08;62.34
2841;BME280;53423;49.224;12.074;2023-02-04T01:25:40;98589.38;;;5.92;62.93
2841;BME280;53423;49.224;12.074;2023-02-04T01:28:08;98588.00;;;6.10;63.05
2841;BME280;53423;49.224;12.074;2023-02-04T01:30:37;98587.09;;;6.11;62.24
2841;BME280;53423;49.224;12.074;2023-02-04T01:33:05;98584.13;;;6.15;63.34
2841;BME280;53423;49.224;12.074;2023-02-04T01:35:33;98588.78;;;5.88;62.81
2841;BME280;53423;49.224;12.074;2023-02-04T01:38:02;98591.09;;;5.80;62.63
2841;BME280;53423;49.224;12.074;2023-02-04T01:40:30;98603.97;;;5.82;63.78
2841;BME280;53423;49.224;12.074;2023-02-04T01:42:58;98586.53;;;5.84;62.51
2841;BME280;53423;49.224;12.074;2023-02-04T01:45:27;98597.84;;;6.06;62.28
2841;BME280;53423;49.224;12.074;2023-02-04T01:47:56;98595.06;;;5.97;61.38
2841;BME280;53423;49.224;12.074;2023-02-04T01:50:24;98599.84;;;6.03;61.25
2841;BME280;53423;49.224;12.074;2023-02-04T01:52:52;98601.50;;;6.04;61.23
2841;BME280;53423;49.224;12.074;2023-02-04T01:55:25;98603.84;;;5.96;61.38
2841;BME280;53423;49.224;12.074;2023-02-04T01:57:53;98610.53;;;5.87;60.86
2841;BME280;53423;49.224;12.074;2023-02-04T02:00:26;98607.38;;;5.95;60.94
2841;BME280;53423;49.224;12.074;2023-02-04T02:02:55;98615.63;;;5.89;60.98
2841;BME280;53423;49.224;12.074;2023-02-04T02:05:24;98623.91;;;5.83;60.84
2841;BME280;53423;49.224;12.074;2023-02-04T02:07:55;98625.16;;;6.01;60.43
2841;BME280;53423;49.224;12.074;2023-02-04T02:10:25;98631.72;;;5.94;59.98
2841;BME280;53423;49.224;12.074;2023-02-04T02:12:54;98629.97;;;5.94;60.23
2841;BME280;53423;49.224;12.074;2023-02-04T02:15:23;98634.59;;;5.78;59.51
2841;BME280;53423;49.224;12.074;2023-02-04T02:17:52;98636.19;;;5.68;60.73
2841;BME280;53423;49.224;12.074;2023-02-04T02:20:23;98627.66;;;5.66;61.04
2841;BME280;53423;49.224;12.074;2023-02-04T02:22:59;98645.41;;;5.85;59.93
2841;BME280;53423;49.224;12.074;2023-02-04T02:25:31;98655.09;;;6.06;59.08
2841;BME280;53423;49.224;12.074;2023-02-04T02:27:59;98657.09;;;6.03;59.30
2841;BME280;53423;49.224;12.074;2023-02-04T02:30:28;98658.97;;;6.01;60.10
2841;BME280;53423;49.224;12.074;2023-02-04T02:32:57;98645.09;;;5.77;59.47
2841;BME280;53423;49.224;12.074;2023-02-04T02:35:25;98659.78;;;5.78;60.40
2841;BME280;53423;49.224;12.074;2023-02-04T02:37:53;98646.34;;;5.84;59.40
2841;BME280;53423;49.224;12.074;2023-02-04T02:40:21;98645.44;;;5.72;60.13
2841;BME280;53423;49.224;12.074;2023-02-04T02:42:52;98651.09;;;5.90;59.48
2841;BME280;53423;49.224;12.074;2023-02-04T02:45:23;98655.00;;;5.84;60.52
2841;BME280;53423;49.224;12.074;2023-02-04T02:47:52;98647.09;;;5.86;59.53
2841;BME280;53423;49.224;12.074;2023-02-04T02:50:23;98658.00;;;5.78;60.31
2841;BME280;53423;49.224;12.074;2023-02-04T02:52:53;98665.97;;;5.64;60.52
2841;BME280;53423;49.224;12.074;2023-02-04T02:55:23;98675.81;;;5.84;59.60
2841;BME280;53423;49.224;12.074;2023-02-04T02:57:54;98671.53;;;5.83;60.09
2841;BME280;53423;49.224;12.074;2023-02-04T03:00:24;98664.56;;;5.71;59.77
2841;BME280;53423;49.224;12.074;2023-02-04T03:02:56;98668.72;;;5.74;59.22
2841;BME280;53423;49.224;12.074;2023-02-04T03:05:26;98675.28;;;5.79;59.57
2841;BME280;53423;49.224;12.074;2023-02-04T03:07:55;98675.28;;;5.79;59.86
2841;BME280;53423;49.224;12.074;2023-02-04T03:10:23;98675.59;;;5.87;59.64
2841;BME280;53423;49.224;12.074;2023-02-04T03:12:51;98692.38;;;5.71;60.28
2841;BME280;53423;49.224;12.074;2023-02-04T03:15:20;98695.63;;;5.62;59.62
2841;BME280;53423;49.224;12.074;2023-02-04T03:17:48;98709.16;;;5.54;60.52
2841;BME280;53423;49.224;12.074;2023-02-04T03:20:23;98710.47;;;5.60;59.97
2841;BME280;53423;49.224;12.074;2023-02-04T03:22:51;98703.97;;;5.54;59.45
2841;BME280;53423;49.224;12.074;2023-02-04T03:25:19;98707.53;;;5.41;60.41
2841;BME280;53423;49.224;12.074;2023-02-04T03:27:50;98712.41;;;5.45;60.71
2841;BME280;53423;49.224;12.074;2023-02-04T03:30:21;98730.19;;;5.39;61.06
2841;BME280;53423;49.224;12.074;2023-02-04T03:32:49;98735.06;;;5.43;60.63
2841;BME280;53423;49.224;12.074;2023-02-04T03:35:18;98744.34;;;5.35;60.10
2841;BME280;53423;49.224;12.074;2023-02-04T03:37:46;98740.31;;;5.31;60.54
2841;BME280;53423;49.224;12.074;2023-02-04T03:40:14;98748.00;;;5.32;60.44
2841;BME280;53423;49.224;12.074;2023-02-04T03:42:42;98738.22;;;5.36;60.71
2841;BME280;53423;49.224;12.074;2023-02-04T03:45:15;98743.53;;;5.34;61.25
2841;BME280;53423;49.224;12.074;2023-02-04T03:47:45;98752.88;;;5.37;60.48
2841;BME280;53423;49.224;12.074;2023-02-04T03:50:16;98754.63;;;5.36;61.21
2841;BME280;53423;49.224;12.074;2023-02-04T03:52:44;98759.41;;;5.30;61.54
2841;BME280;53423;49.224;12.074;2023-02-04T03:55:12;98747.56;;;5.38;61.34
2841;BME280;53423;49.224;12.074;2023-02-04T03:57:40;98756.31;;;5.37;61.65
2841;BME280;53423;49.224;12.074;2023-02-04T04:00:09;98752.34;;;5.32;61.36
2841;BME280;53423;49.224;12.074;2023-02-04T04:02:37;98761.09;;;5.18;62.22
2841;BME280;53423;49.224;12.074;2023-02-04T04:05:08;98761.28;;;5.40;61.55
2841;BME280;53423;49.224;12.074;2023-02-04T04:07:36;98774.06;;;5.56;61.23
2841;BME280;53423;49.224;12.074;2023-02-04T04:10:04;98777.50;;;5.44;62.13
2841;BME280;53423;49.224;12.074;2023-02-04T04:12:32;98762.94;;;5.54;62.06
2841;BME280;53423;49.224;12.074;2023-02-04T04:15:00;98784.47;;;5.43;61.79
2841;BME280;53423;49.224;12.074;2023-02-04T04:17:28;98777.06;;;5.50;62.01
2841;BME280;53423;49.224;12.074;2023-02-04T04:19:56;98785.41;;;5.42;62.26
2841;BME280;53423;49.224;12.074;2023-02-04T04:22:25;98790.19;;;5.23;62.67
2841;BME280;53423;49.224;12.074;2023-02-04T04:24:53;98791.66;;;5.27;63.71
2841;BME280;53423;49.224;12.074;2023-02-04T04:27:21;98800.81;;;5.58;62.37
2841;BME280;53423;49.224;12.074;2023-02-04T04:29:49;98796.22;;;5.49;62.37
2841;BME280;53423;49.224;12.074;2023-02-04T04:32:17;98811.91;;;5.60;62.43
2841;BME280;53423;49.224;12.074;2023-02-04T04:34:45;98817.94;;;5.48;62.10
2841;BME280;53423;49.224;12.074;2023-02-04T04:37:13;98817.41;;;5.43;62.46
2841;BME280;53423;49.224;12.074;2023-02-04T04:39:42;98820.53;;;5.48;62.42
2841;BME280;53423;49.224;12.074;2023-02-04T04:42:10;98826.16;;;5.17;63.27
2841;BME280;53423;49.224;12.074;2023-02-04T04:44:38;98831.66;;;5.25;62.59
2841;BME280;53423;49.224;12.074;2023-02-04T04:47:06;98830.63;;;5.40;62.24
2841;BME280;53423;49.224;12.074;2023-02-04T04:49:34;98847.41;;;5.36;62.50
2841;BME280;53423;49.224;12.074;2023-02-04T04:52:02;98851.84;;;5.34;62.52
2841;BME280;53423;49.224;12.074;2023-02-04T04:54:30;98867.34;;;5.35;62.38
2841;BME280;53423;49.224;12.074;2023-02-04T04:57:00;98885.53;;;5.48;62.96
2841;BME280;53423;49.224;12.074;2023-02-04T04:59:28;98906.06;;;5.52;63.08
2841;BME280;53423;49.224;12.074;2023-02-04T05:01:56;98939.28;;;5.22;64.39
2841;BME280;53423;49.224;12.074;2023-02-04T05:04:24;98948.38;;;4.21;68.75
2841;BME280;53423;49.224;12.074;2023-02-04T05:06:51;98957.31;;;3.30;73.16
2841;BME280;53423;49.224;12.074;2023-02-04T05:09:19;98963.16;;;3.33;73.55
2841;BME280;53423;49.224;12.074;2023-02-04T05:11:47;98971.22;;;3.29;73.78
2841;BME280;53423;49.224;12.074;2023-02-04T05:14:17;98968.56;;;3.15;74.88
2841;BME280;53423;49.224;12.074;2023-02-04T05:16:45;98961.53;;;3.17;75.13
2841;BME280;53423;49.224;12.074;2023-02-04T05:19:12;98967.13;;;3.54;73.38
2841;BME280;53423;49.224;12.074;2023-02-04T05:21:40;98975.94;;;3.66;72.46
2841;BME280;53423;49.224;12.074;2023-02-04T05:24:08;98977.34;;;3.86;72.77
2841;BME280;53423;49.224;12.074;2023-02-04T05:26:36;98980.31;;;3.94;72.29
2841;BME280;53423;49.224;12.074;2023-02-04T05:29:04;98986.91;;;4.13;71.16
2841;BME280;53423;49.224;12.074;2023-02-04T05:31:33;98998.03;;;4.29;71.44
2841;BME280;53423;49.224;12.074;2023-02-04T05:34:01;98999.34;;;4.36;70.57
2841;BME280;53423;49.224;12.074;2023-02-04T05:36:29;99002.19;;;4.46;69.30
2841;BME280;53423;49.224;12.074;2023-02-04T05:39:00;99004.53;;;4.36;69.81
2841;BME280;53423;49.224;12.074;2023-02-04T05:41:28;99016.47;;;4.39;68.55
2841;BME280;53423;49.224;12.074;2023-02-04T05:43:58;99006.56;;;4.31;68.35
2841;BME280;53423;49.224;12.074;2023-02-04T05:46:26;99019.25;;;4.36;68.54
2841;BME280;53423;49.224;12.074;2023-02-04T05:48:55;99031.31;;;4.23;68.94
2841;BME280;53423;49.224;12.074;2023-02-04T05:51:23;99031.53;;;3.90;69.20
2841;BME280;53423;49.224;12.074;2023-02-04T05:53:51;99041.75;;;3.93;69.77
2841;BME280;53423;49.224;12.074;2023-02-04T05:56:19;99042.50;;;3.65;70.52
2841;BME280;53423;49.224;12.074;2023-02-04T05:58:47;99043.34;;;3.80;71.21
2841;BME280;53423;49.224;12.074;2023-02-04T06:01:15;99056.38;;;3.94;69.96
2841;BME280;53423;49.224;12.074;2023-02-04T06:03:42;99055.28;;;3.98;69.27
2841;BME280;53423;49.224;12.074;2023-02-04T06:06:12;99059.38;;;4.30;69.40
2841;BME280;53423;49.224;12.074;2023-02-04T06:08:40;99074.22;;;4.42;67.82
2841;BME280;53423;49.224;12.074;2023-02-04T06:11:08;99083.03;;;4.40;68.31
2841;BME280;53423;49.224;12.074;2023-02-04T06:13:35;99089.44;;;4.48;68.36
2841;BME280;53423;49.224;12.074;2023-02-04T06:16:04;99094.22;;;4.40;68.36
2841;BME280;53423;49.224;12.074;2023-02-04T06:18:32;99105.56;;;4.53;68.59
2841;BME280;53423;49.224;12.074;2023-02-04T06:21:00;99110.09;;;4.64;68.23
2841;BME280;53423;49.224;12.074;2023-02-04T06:23:31;99100.94;;;4.58;67.30
2841;BME280;53423;49.224;12.074;2023-02-04T06:26:00;99107.25;;;4.68;66.83
2841;BME280;53423;49.224;12.074;2023-02-04T06:28:29;99115.28;;;4.64;66.73
2841;BME280;53423;49.224;12.074;2023-02-04T06:30:57;99129.66;;;4.55;66.77
2841;BME280;53423;49.224;12.074;2023-02-04T06:33:25;99140.16;;;4.68;65.80
2841;BME280;53423;49.224;12.074;2023-02-04T06:35:53;99135.16;;;4.65;64.38
2841;BME280;53423;49.224;12.074;2023-02-04T06:38:21;99140.22;;;4.38;65.59
2841;BME280;53423;49.224;12.074;2023-02-04T06:40:50;99142.84;;;4.52;64.92
2841;BME280;53423;49.224;12.074;2023-02-04T06:43:19;99143.59;;;4.54;64.62
2841;BME280;53423;49.224;12.074;2023-02-04T06:45:47;99144.59;;;4.38;65.47
2841;BME280;53423;49.224;12.074;2023-02-04T06:48:16;99150.88;;;4.34;66.23
2841;BME280;53423;49.224;12.074;2023-02-04T06:50:44;99148.88;;;4.53;65.36
2841;BME280;53423;49.224;12.074;2023-02-04T06:53:12;99157.50;;;4.67;65.38
2841;BME280;53423;49.224;12.074;2023-02-04T06:55:40;99169.34;;;4.57;64.50
2841;BME280;53423;49.224;12.074;2023-02-04T06:58:10;99176.69;;;4.51;65.26
2841;BME280;53423;49.224;12.074;2023-02-04T07:00:37;99181.44;;;4.58;65.51
2841;BME280;53423;49.224;12.074;2023-02-04T07:03:05;99195.88;;;4.19;66.17
2841;BME280;53423;49.224;12.074;2023-02-04T07:05:33;99202.06;;;4.46;65.45
2841;BME280;53423;49.224;12.074;2023-02-04T07:08:04;99208.84;;;4.48;65.27
2841;BME280;53423;49.224;12.074;2023-02-04T07:10:32;99219.28;;;4.76;64.60
2841;BME280;53423;49.224;12.074;2023-02-04T07:13:00;99227.28;;;4.14;65.22
2841;BME280;53423;49.224;12.074;2023-02-04T07:15:29;99227.28;;;4.44;63.99
2841;BME280;53423;49.224;12.074;2023-02-04T07:17:58;99240.09;;;4.47;63.75
2841;BME280;53423;49.224;12.074;2023-02-04T07:20:26;99236.19;;;4.40;63.14
2841;BME280;53423;49.224;12.074;2023-02-04T07:22:54;99237.22;;;4.51;63.31
2841;BME280;53423;49.224;12.074;2023-02-04T07:25:22;99248.66;;;5.35;61.43
2841;BME280;53423;49.224;12.074;2023-02-04T07:27:50;99255.75;;;6.28;58.93
2841;BME280;53423;49.224;12.074;2023-02-04T07:30:18;99237.75;;;7.02;55.87
2841;BME280;53423;49.224;12.074;2023-02-04T07:32:47;99246.84;;;7.09;54.52
2841;BME280;53423;49.224;12.074;2023-02-04T07:35:15;99251.09;;;7.84;52.93
2841;BME280;53423;49.224;12.074;2023-02-04T07:37:43;99247.22;;;8.49;50.55
2841;BME280;53423;49.224;12.074;2023-02-04T07:40:11;99256.97;;;8.11;49.31
2841;BME280;53423;49.224;12.074;2023-02-04T07:42:39;99249.16;;;8.11;49.08
2841;BME280;53423;49.224;12.074;2023-02-04T07:45:07;99255.97;;;8.71;47.69
2841;BME280;53423;49.224;12.074;2023-02-04T07:47:35;99256.66;;;10.07;42.40
2841;BME280;53423;49.224;12.074;2023-02-04T07:50:05;99257.69;;;8.84;44.94
2841;BME280;53423;49.224;12.074;2023-02-04T07:52:33;99267.97;;;9.97;43.13
2841;BME280;53423;49.224;12.074;2023-02-04T07:55:01;99269.53;;;9.99;42.54
2841;BME280;53423;49.224;12.074;2023-02-04T07:57:29;99282.66;;;10.42;40.56
2841;BME280;53423;49.224;12.074;2023-02-04T07:59:57;99285.09;;;10.23;40.89
2841;BME280;53423;49.224;12.074;2023-02-04T08:02:25;99283.59;;;11.46;38.34
2841;BME280;53423;49.224;12.074;2023-02-04T08:04:53;99277.66;;;11.74;39.35
2841;BME280;53423;49.224;12.074;2023-02-04T08:07:23;99281.84;;;13.21;34.27
2841;BME280;53423;49.224;12.074;2023-02-04T08:09:51;99279.19;;;13.40;34.42
2841;BME280;53423;49.224;12.074;2023-02-04T08:12:19;99290.47;;;13.59;33.53
2841;BME280;53423;49.224;12.074;2023-02-04T08:14:47;99288.09;;;14.30;32.87
2841;BME280;53423;49.224;12.074;2023-02-04T08:17:14;99289.41;;;14.96;30.85
2841;BME280;53423;49.224;12.074;2023-02-04T08:19:42;99297.44;;;15.47;30.25
2841;BME280;53423;49.224;12.074;2023-02-04T08:22:10;99300.50;;;15.00;29.71
2841;BME280;53423;49.224;12.074;2023-02-04T08:24:39;99313.06;;;14.80;31.24
2841;BME280;53423;49.224;12.074;2023-02-04T08:27:07;99315.00;;;14.95;30.48
2841;BME280;53423;49.224;12.074;2023-02-04T08:29:36;99317.19;;;15.00;29.89
2841;BME280;53423;49.224;12.074;2023-02-04T08:32:04;99321.34;;;15.46;28.73
2841;BME280;53423;49.224;12.074;2023-02-04T08:34:32;99317.84;;;17.12;26.98
2841;BME280;53423;49.224;12.074;2023-02-04T08:37:00;99312.72;;;15.87;28.68
2841;BME280;53423;49.224;12.074;2023-02-04T08:39:28;99323.00;;;17.62;25.65
2841;BME280;53423;49.224;12.074;2023-02-04T08:41:58;99326.94;;;16.77;26.34
2841;BME280;53423;49.224;12.074;2023-02-04T08:44:25;99326.31;;;17.31;26.57
2841;BME280;53423;49.224;12.074;2023-02-04T08:46:53;99324.00;;;17.28;26.50
2841;BME280;53423;49.224;12.074;2023-02-04T08:49:21;99332.22;;;17.90;26.08
2841;BME280;53423;49.224;12.074;2023-02-04T08:51:49;99329.47;;;17.59;26.55
2841;BME280;53423;49.224;12.074;2023-02-04T08:54:18;99326.97;;;17.74;25.44
2841;BME280;53423;49.224;12.074;2023-02-04T08:56:45;99333.28;;;18.66;24.89
2841;BME280;53423;49.224;12.074;2023-02-04T08:59:15;99340.06;;;17.03;26.41
2841;BME280;53423;49.224;12.074;2023-02-04T09:01:43;99347.03;;;17.36;26.18
2841;BME280;53423;49.224;12.074;2023-02-04T09:04:16;99354.13;;;17.92;25.59
2841;BME280;53423;49.224;12.074;2023-02-04T09:06:45;99357.22;;;18.03;25.17
2841;BME280;53423;49.224;12.074;2023-02-04T09:09:13;99364.44;;;17.63;25.75
2841;BME280;53423;49.224;12.074;2023-02-04T09:11:41;99368.81;;;16.74;26.38
2841;BME280;53423;49.224;12.074;2023-02-04T09:14:09;99367.09;;;16.49;27.31
2841;BME280;53423;49.224;12.074;2023-02-04T09:16:39;99367.44;;;17.60;25.57
2841;BME280;53423;49.224;12.074;2023-02-04T09:19:07;99380.00;;;17.42;25.78
2841;BME280;53423;49.224;12.074;2023-02-04T09:21:38;99389.56;;;16.45;27.11
2841;BME280;53423;49.224;12.074;2023-02-04T09:24:06;99386.56;;;15.80;27.22
2841;BME280;53423;49.224;12.074;2023-02-04T09:26:34;99394.47;;;15.20;29.16
2841;BME280;53423;49.224;12.074;2023-02-04T09:29:05;99396.97;;;16.07;27.17
2841;BME280;53423;49.224;12.074;2023-02-04T09:31:32;99392.03;;;14.46;30.11
2841;BME280;53423;49.224;12.074;2023-02-04T09:34:02;99390.75;;;15.30;28.67
2841;BME280;53423;49.224;12.074;2023-02-04T09:36:30;99398.28;;;13.15;31.96
2841;BME280;53423;49.224;12.074;2023-02-04T09:39:04;99388.06;;;12.63;33.08
2841;BME280;53423;49.224;12.074;2023-02-04T09:41:33;99396.53;;;11.96;33.90
2841;BME280;53423;49.224;12.074;2023-02-04T09:44:03;99402.19;;;11.92;35.08
2841;BME280;53423;49.224;12.074;2023-02-04T09:46:31;99409.78;;;12.15;34.58
2841;BME280;53423;49.224;12.074;2023-02-04T09:48:59;99424.72;;;9.23;39.68
2841;BME280;53423;49.224;12.074;2023-02-04T09:51:32;99430.34;;;9.64;39.50
2841;BME280;53423;49.224;12.074;2023-02-04T09:54:05;99432.34;;;10.28;37.84
2841;BME280;53423;49.224;12.074;2023-02-04T09:56:35;99449.16;;;9.80;39.17
2841;BME280;53423;49.224;12.074;2023-02-04T09:59:03;99457.69;;;9.60;39.34
2841;BME280;53423;49.224;12.074;2023-02-04T10:01:33;99460.50;;;9.91;39.18
2841;BME280;53423;49.224;12.074;2023-02-04T10:04:01;99452.94;;;10.44;39.09
2841;BME280;53423;49.224;12.074;2023-02-04T10:06:31;99467.25;;;10.40;39.16
2841;BME280;53423;49.224;12.074;2023-02-04T10:08:59;99471.22;;;10.99;38.41
2841;BME280;53423;49.224;12.074;2023-02-04T10:11:31;99470.44;;;11.19;36.45
2841;BME280;53423;49.224;12.074;2023-02-04T10:14:00;99469.84;;;11.26;35.45
2841;BME280;53423;49.224;12.074;2023-02-04T10:16:30;99466.38;;;11.26;36.03
2841;BME280;53423;49.224;12.074;2023-02-04T10:19:00;99465.84;;;11.11;36.69
2841;BME280;53423;49.224;12.074;2023-02-04T10:21:31;99462.38;;;11.11;36.11
2841;BME280;53423;49.224;12.074;2023-02-04T10:24:01;99462.22;;;10.37;38.00
2841;BME280;53423;49.224;12.074;2023-02-04T10:26:30;99459.25;;;10.52;37.68
2841;BME280;53423;49.224;12.074;2023-02-04T10:29:00;99464.81;;;10.81;37.21
2841;BME280;53423;49.224;12.074;2023-02-04T10:31:30;99461.53;;;10.35;37.14
2841;BME280;53423;49.224;12.074;2023-02-04T10:34:09;99470.81;;;10.17;38.28
2841;BME280;53423;49.224;12.074;2023-02-04T10:36:40;99468.44;;;10.14;39.64
2841;BME280;53423;49.224;12.074;2023-02-04T10:39:12;99473.59;;;9.91;38.78
2841;BME280;53423;49.224;12.074;2023-02-04T10:41:45;99474.25;;;9.60;41.98
2841;BME280;53423;49.224;12.074;2023-02-04T10:44:17;99468.63;;;9.99;38.85
2841;BME280;53423;49.224;12.074;2023-02-04T10:46:45;99478.31;;;10.10;39.94
2841;BME280;53423;49.224;12.074;2023-02-04T10:49:19;99478.09;;;9.44;39.68
2841;BME280;53423;49.224;12.074;2023-02-04T10:51:50;99481.22;;;9.49;38.49
2841;BME280;53423;49.224;12.074;2023-02-04T10:54:20;99486.47;;;9.02;39.42
2841;BME280;53423;49.224;12.074;2023-02-04T10:57:06;99484.44;;;8.82;40.27
2841;BME280;53423;49.224;12.074;2023-02-04T10:59:35;99485.97;;;8.23;41.36
2841;BME280;53423;49.224;12.074;2023-02-04T11:05:10;99485.41;;;7.80;42.20
2841;BME280;53423;49.224;12.074;2023-02-04T11:07:40;99483.34;;;8.35;41.09
2841;BME280;53423;49.224;12.074;2023-02-04T11:10:13;99477.50;;;8.80;41.13
2841;BME280;53423;49.224;12.074;2023-02-04T11:12:43;99494.66;;;8.23;42.48
2841;BME280;53423;49.224;12.074;2023-02-04T11:15:37;99491.91;;;8.62;41.38
2841;BME280;53423;49.224;12.074;2023-02-04T11:18:08;99495.16;;;8.28;42.24
2841;BME280;53423;49.224;12.074;2023-02-04T11:20:37;99487.84;;;8.21;40.07
2841;BME280;53423;49.224;12.074;2023-02-04T11:23:16;99495.69;;;8.21;40.72
2841;BME280;53423;49.224;12.074;2023-02-04T11:25:44;99491.81;;;8.39;41.51
2841;BME280;53423;49.224;12.074;2023-02-04T11:28:14;99488.16;;;8.04;42.19
2841;BME280;53423;49.224;12.074;2023-02-04T11:30:42;99493.41;;;8.41;41.96
2841;BME280;53423;49.224;12.074;2023-02-04T11:33:22;99486.09;;;8.82;41.05
2841;BME280;53423;49.224;12.074;2023-02-04T11:36:00;99482.78;;;9.97;37.43
2841;BME280;53423;49.224;12.074;2023-02-04T11:38:32;99479.16;;;10.66;36.32
2841;BME280;53423;49.224;12.074;2023-02-04T11:41:00;99480.88;;;11.09;35.92
2841;BME280;53423;49.224;12.074;2023-02-04T11:43:32;99477.94;;;13.07;33.55
2841;BME280;53423;49.224;12.074;2023-02-04T11:46:03;99477.41;;;13.99;30.78
2841;BME280;53423;49.224;12.074;2023-02-04T11:48:35;99475.34;;;13.64;31.09
2841;BME280;53423;49.224;12.074;2023-02-04T11:51:11;99491.81;;;11.89;31.94
2841;BME280;53423;49.224;12.074;2023-02-04T11:53:41;99491.84;;;11.14;33.82
2841;BME280;53423;49.224;12.074;2023-02-04T11:56:15;99488.94;;;10.75;35.14
2841;BME280;53423;49.224;12.074;2023-02-04T11:58:43;99495.38;;;9.81;36.78
2841;BME280;53423;49.224;12.074;2023-02-04T12:01:18;99486.13;;;9.99;36.64
2841;BME280;53423;49.224;12.074;2023-02-04T12:03:48;99485.47;;;9.73;36.44
2841;BME280;53423;49.224;12.074;2023-02-04T12:06:20;99482.28;;;9.92;35.52
2841;BME280;53423;49.224;12.074;2023-02-04T12:08:49;99480.41;;;9.25;36.87
2841;BME280;53423;49.224;12.074;2023-02-04T12:11:24;99485.63;;;9.01;37.81
2841;BME280;53423;49.224;12.074;2023-02-04T12:13:57;99485.66;;;11.47;34.61
2841;BME280;53423;49.224;12.074;2023-02-04T12:16:25;99475.31;;;13.07;28.83
2841;BME280;53423;49.224;12.074;2023-02-04T12:18:53;99469.94;;;13.85;27.84
2841;BME280;53423;49.224;12.074;2023-02-04T12:21:21;99469.75;;;14.06;27.91
2841;BME280;53423;49.224;12.074;2023-02-04T12:23:50;99472.25;;;16.64;24.82
2841;BME280;53423;49.224;12.074;2023-02-04T12:26:18;99460.69;;;19.51;21.02
2841;BME280;53423;49.224;12.074;2023-02-04T12:28:46;99457.72;;;20.58;18.96
2841;BME280;53423;49.224;12.074;2023-02-04T12:31:14;99455.31;;;19.37;19.12
2841;BME280;53423;49.224;12.074;2023-02-04T12:33:42;99459.84;;;19.20;20.24
2841;BME280;53423;49.224;12.074;2023-02-04T12:36:10;99458.47;;;20.66;17.54
2841;BME280;53423;49.224;12.074;2023-02-04T12:38:38;99458.59;;;20.94;17.57
2841;BME280;53423;49.224;12.074;2023-02-04T12:41:08;99472.06;;;19.37;20.08
2841;BME280;53423;49.224;12.074;2023-02-04T12:43:35;99462.84;;;18.48;20.02
2841;BME280;53423;49.224;12.074;2023-02-04T12:46:03;99467.69;;;15.97;23.94
2841;BME280;53423;49.224;12.074;2023-02-04T12:48:31;99467.94;;;14.25;25.12
2841;BME280;53423;49.224;12.074;2023-02-04T12:50:59;99474.38;;;13.56;26.79
2841;BME280;53423;49.224;12.074;2023-02-04T12:53:27;99467.19;;;13.58;27.21
2841;BME280;53423;49.224;12.074;2023-02-04T12:55:55;99472.16;;;13.80;27.20
2841;BME280;53423;49.224;12.074;2023-02-04T12:58:24;99475.91;;;12.41;29.10
2841;BME280;53423;49.224;12.074;2023-02-04T13:00:52;99472.81;;;12.06;30.91
2841;BME280;53423;49.224;12.074;2023-02-04T13:03:20;99472.00;;;10.46;33.10
2841;BME280;53423;49.224;12.074;2023-02-04T13:05:49;99472.53;;;10.05;33.18
2841;BME280;53423;49.224;12.074;2023-02-04T13:08:17;99478.84;;;9.91;34.45
2841;BME280;53423;49.224;12.074;2023-02-04T13:10:45;99490.47;;;9.76;34.64
2841;BME280;53423;49.224;12.074;2023-02-04T13:13:17;99491.75;;;9.36;34.76
2841;BME280;53423;49.224;12.074;2023-02-04T13:15:47;99497.78;;;9.02;36.09
2841;BME280;53423;49.224;12.074;2023-02-04T13:18:15;99495.88;;;8.55;36.52
2841;BME280;53423;49.224;12.074;2023-02-04T13:20:44;99490.56;;;8.93;38.36